Counce, TN (38326)

2:37 AM CDT on September 01, 2014 (GMT -0500)
City | Change Station
CLOSE
Current Station
Personal Weather Station
Location: Corinth, MS
Elevation: 435 ft
Nearby Weather Stations

Elev 435 ft 34.95 °N, 88.50 °W | Updated 8 minutes ago

Partly Cloudy
Partly Cloudy
75.3 °F
Feels Like 74 °F
N
0.0
Wind Variable Wind from SE
Gusts 1.0 mph

Today
High -- | Low -- °F
--% Chance of Precip.
Yesterday
High -- | Low -- °F
Precip. -- in
6:25 AM 7:19 PM
Waxing Crescent, 38% visible
Pressure 30.03 in
Visibility 0.2 miles
Clouds
Heat Index 74 °F
Dew Point 72 °F
Humidity 91%
Rainfall 0.00 in
Snow Depth Not available.
UV Not available.
Pollen 3.80 out of 12
Air Quality Not available.
Flu Activity Not available.
METAR KCRX 010715Z AUTO 00000KT 1/4SM FG VV002 23/22 A3003 RMK AO2

More Conditions Fewer Conditions

Pressure 30.03 in
Visibility 0.2 miles
Clouds
Heat Index 74 °F
Dew Point 72 °F
Humidity 91%
Rainfall 0.00 in
Snow Depth Not available.
UV Not available.
Pollen 3.80 out of 12
Air Quality Not available.
Flu Activity Not available.
METAR KCRX 010715Z AUTO 00000KT 1/4SM FG VV002 23/22 A3003 RMK AO2

More Conditions Fewer Conditions

10-Day Weather Forecast

Almanac

Astronomy

Sep. 01, 2014 Rise Set
Actual Time 6:25 AM CDT 7:19 PM CDT
Civil Twilight 5:59 AM CDT 7:45 PM CDT
Nautical Twilight 5:28 AM CDT 8:16 PM CDT
Astronomical Twilight 4:57 AM CDT 8:47 PM CDT
Moon 12:55 PM CDT 11:35 PM CDT
Length of Visible Light 13h 45m
Length of Day
12h 54m
Tomorrow will be 2m 7s shorter.
Waxing Crescent, 38% of the Moon is Illuminated
Today
Waxing Crescent
Sep 2
First Quarter
Sep 8
Full
Sep 15
Last Quarter
Sep 24
New

Today's Extremes

State Highs State Lows

Community

WunderPhotos

Upload Photos

1,749,154 photos uploaded!

Nearby

Snow Depth

Station Depth Elevation
No new snow has been reported.

Earthquake Activity

City Distance Mag. Time & Date
Tiptonville, Tennessee 111 miles 3.1 11:19 PM CDT
2014-08-31
Minimum magnitude displayed is 2.5.

Coastal Water Temperatures

Place Temperature
No Stations Reporting

Nearby Weather Stations